sensor_id;sensor_type;location;lat;lon;timestamp;pressure;altitude;pressure_sealevel;temperature;humidity
66385;BME280;53426;55.872;37.462;2022-10-16T00:01:16;100418.28;;;5.44;63.92
66385;BME280;53426;55.872;37.462;2022-10-16T00:03:43;100401.41;;;5.31;64.20
66385;BME280;53426;55.872;37.462;2022-10-16T00:06:10;100416.03;;;5.37;64.38
66385;BME280;53426;55.872;37.462;2022-10-16T00:08:37;100426.47;;;5.38;64.72
66385;BME280;53426;55.872;37.462;2022-10-16T00:11:06;100403.47;;;5.25;64.63
66385;BME280;53426;55.872;37.462;2022-10-16T00:13:36;100428.38;;;5.35;64.89
66385;BME280;53426;55.872;37.462;2022-10-16T00:16:03;100399.47;;;5.18;64.49
66385;BME280;53426;55.872;37.462;2022-10-16T00:18:29;100427.69;;;5.31;64.48
66385;BME280;53426;55.872;37.462;2022-10-16T00:20:56;100440.81;;;5.31;64.79
66385;BME280;53426;55.872;37.462;2022-10-16T00:23:45;100434.28;;;5.21;65.03
66385;BME280;53426;55.872;37.462;2022-10-16T00:26:14;100444.50;;;5.27;64.71
66385;BME280;53426;55.872;37.462;2022-10-16T00:28:41;100435.72;;;5.28;64.98
66385;BME280;53426;55.872;37.462;2022-10-16T00:31:10;100444.72;;;5.23;64.95
66385;BME280;53426;55.872;37.462;2022-10-16T00:33:37;100408.22;;;4.99;65.11
66385;BME280;53426;55.872;37.462;2022-10-16T00:36:05;100436.34;;;5.15;65.52
66385;BME280;53426;55.872;37.462;2022-10-16T00:38:31;100453.75;;;5.17;64.98
66385;BME280;53426;55.872;37.462;2022-10-16T00:40:57;100434.13;;;5.07;64.82
66385;BME280;53426;55.872;37.462;2022-10-16T00:43:47;100448.56;;;5.16;65.66
66385;BME280;53426;55.872;37.462;2022-10-16T00:48:47;100442.75;;;5.09;65.26
66385;BME280;53426;55.872;37.462;2022-10-16T00:51:15;100452.25;;;5.12;65.33
66385;BME280;53426;55.872;37.462;2022-10-16T00:53:42;100444.69;;;5.05;65.91
66385;BME280;53426;55.872;37.462;2022-10-16T00:56:07;100451.69;;;5.05;65.25
66385;BME280;53426;55.872;37.462;2022-10-16T00:58:33;100454.25;;;5.07;65.42
66385;BME280;53426;55.872;37.462;2022-10-16T01:00:59;100455.41;;;5.01;65.63
66385;BME280;53426;55.872;37.462;2022-10-16T01:03:33;100443.19;;;5.00;65.61
66385;BME280;53426;55.872;37.462;2022-10-16T01:13:52;100464.03;;;5.03;66.08
66385;BME280;53426;55.872;37.462;2022-10-16T01:17:03;100462.31;;;5.02;66.12
66385;BME280;53426;55.872;37.462;2022-10-16T01:19:58;100464.19;;;5.00;66.20
66385;BME280;53426;55.872;37.462;2022-10-16T01:22:37;100462.63;;;4.96;65.97
66385;BME280;53426;55.872;37.462;2022-10-16T01:25:11;100469.72;;;4.94;66.37
66385;BME280;53426;55.872;37.462;2022-10-16T01:27:39;100465.59;;;4.88;66.19
66385;BME280;53426;55.872;37.462;2022-10-16T01:30:17;100433.16;;;4.71;66.20
66385;BME280;53426;55.872;37.462;2022-10-16T01:33:06;100469.00;;;4.90;66.35
66385;BME280;53426;55.872;37.462;2022-10-16T01:35:39;100471.69;;;4.89;66.28
66385;BME280;53426;55.872;37.462;2022-10-16T01:38:12;100460.41;;;4.87;66.41
66385;BME280;53426;55.872;37.462;2022-10-16T01:40:47;100471.06;;;4.84;66.23
66385;BME280;53426;55.872;37.462;2022-10-16T01:43:25;100456.66;;;4.74;66.76
66385;BME280;53426;55.872;37.462;2022-10-16T01:45:52;100478.94;;;4.84;66.69
66385;BME280;53426;55.872;37.462;2022-10-16T01:48:20;100468.72;;;4.78;67.11
66385;BME280;53426;55.872;37.462;2022-10-16T01:50:59;100478.19;;;4.80;66.34
66385;BME280;53426;55.872;37.462;2022-10-16T01:53:27;100475.66;;;4.79;66.82
66385;BME280;53426;55.872;37.462;2022-10-16T01:55:54;100445.81;;;4.62;66.46
66385;BME280;53426;55.872;37.462;2022-10-16T01:58:21;100469.78;;;4.74;66.70
66385;BME280;53426;55.872;37.462;2022-10-16T02:00:49;100461.97;;;4.72;66.44
66385;BME280;53426;55.872;37.462;2022-10-16T02:03:19;100475.78;;;4.76;66.09
66385;BME280;53426;55.872;37.462;2022-10-16T02:08:13;100476.69;;;4.75;67.02
66385;BME280;53426;55.872;37.462;2022-10-16T02:10:39;100458.69;;;4.67;66.35
66385;BME280;53426;55.872;37.462;2022-10-16T02:13:16;100465.50;;;4.71;66.66
66385;BME280;53426;55.872;37.462;2022-10-16T02:16:02;100476.00;;;4.71;67.38
66385;BME280;53426;55.872;37.462;2022-10-16T02:18:29;100476.28;;;4.65;66.43
66385;BME280;53426;55.872;37.462;2022-10-16T02:21:06;100482.16;;;4.70;66.46
66385;BME280;53426;55.872;37.462;2022-10-16T02:23:45;100453.88;;;4.58;67.06
66385;BME280;53426;55.872;37.462;2022-10-16T02:26:15;100477.13;;;4.66;66.94
66385;BME280;53426;55.872;37.462;2022-10-16T02:28:47;100474.56;;;4.64;66.92
66385;BME280;53426;55.872;37.462;2022-10-16T02:31:23;100461.16;;;4.51;67.28
66385;BME280;53426;55.872;37.462;2022-10-16T02:33:52;100490.41;;;4.62;67.20
66385;BME280;53426;55.872;37.462;2022-10-16T02:36:20;100477.66;;;4.53;66.87
66385;BME280;53426;55.872;37.462;2022-10-16T02:38:47;100464.81;;;4.47;67.24
66385;BME280;53426;55.872;37.462;2022-10-16T02:41:13;100486.19;;;4.58;67.49
66385;BME280;53426;55.872;37.462;2022-10-16T02:43:40;100487.13;;;4.57;67.71
66385;BME280;53426;55.872;37.462;2022-10-16T02:46:06;100486.31;;;4.55;67.59
66385;BME280;53426;55.872;37.462;2022-10-16T02:48:31;100497.72;;;4.54;67.75
66385;BME280;53426;55.872;37.462;2022-10-16T02:50:57;100450.88;;;4.27;68.12
66385;BME280;53426;55.872;37.462;2022-10-16T02:53:23;100494.47;;;4.49;67.81
66385;BME280;53426;55.872;37.462;2022-10-16T02:55:49;100476.53;;;4.40;68.72
66385;BME280;53426;55.872;37.462;2022-10-16T02:58:14;100488.56;;;4.44;68.81
66385;BME280;53426;55.872;37.462;2022-10-16T03:00:41;100471.66;;;4.31;68.48
66385;BME280;53426;55.872;37.462;2022-10-16T03:03:08;100495.53;;;4.45;68.61
66385;BME280;53426;55.872;37.462;2022-10-16T03:05:34;100500.81;;;4.44;68.36
66385;BME280;53426;55.872;37.462;2022-10-16T03:07:59;100499.97;;;4.43;68.35
66385;BME280;53426;55.872;37.462;2022-10-16T03:10:26;100502.75;;;4.40;68.61
66385;BME280;53426;55.872;37.462;2022-10-16T03:12:55;100500.13;;;4.40;68.96
66385;BME280;53426;55.872;37.462;2022-10-16T03:15:21;100501.94;;;4.38;68.92
66385;BME280;53426;55.872;37.462;2022-10-16T03:17:48;100505.47;;;4.37;69.12
66385;BME280;53426;55.872;37.462;2022-10-16T03:20:14;100501.28;;;4.33;69.20
66385;BME280;53426;55.872;37.462;2022-10-16T03:22:40;100494.53;;;4.28;69.02
66385;BME280;53426;55.872;37.462;2022-10-16T03:25:07;100506.53;;;4.33;69.14
66385;BME280;53426;55.872;37.462;2022-10-16T03:27:35;100511.94;;;4.30;69.32
66385;BME280;53426;55.872;37.462;2022-10-16T03:30:01;100506.75;;;4.29;68.84
66385;BME280;53426;55.872;37.462;2022-10-16T03:32:27;100489.56;;;4.21;69.21
66385;BME280;53426;55.872;37.462;2022-10-16T03:34:53;100483.81;;;4.13;69.10
66385;BME280;53426;55.872;37.462;2022-10-16T03:37:21;100519.03;;;4.27;69.11
66385;BME280;53426;55.872;37.462;2022-10-16T03:39:47;100507.97;;;4.20;68.91
66385;BME280;53426;55.872;37.462;2022-10-16T03:42:13;100491.06;;;4.07;69.31
66385;BME280;53426;55.872;37.462;2022-10-16T03:44:39;100519.19;;;4.24;69.33
66385;BME280;53426;55.872;37.462;2022-10-16T03:47:04;100515.97;;;4.17;68.67
66385;BME280;53426;55.872;37.462;2022-10-16T03:49:30;100482.56;;;4.02;69.17
66385;BME280;53426;55.872;37.462;2022-10-16T03:51:56;100515.38;;;4.10;69.30
66385;BME280;53426;55.872;37.462;2022-10-16T03:54:21;100515.16;;;4.15;70.16
66385;BME280;53426;55.872;37.462;2022-10-16T03:56:48;100510.97;;;4.11;69.80
66385;BME280;53426;55.872;37.462;2022-10-16T03:59:13;100519.69;;;4.11;69.87
66385;BME280;53426;55.872;37.462;2022-10-16T04:01:39;100504.28;;;4.04;69.99
66385;BME280;53426;55.872;37.462;2022-10-16T04:04:05;100515.47;;;4.09;69.96
66385;BME280;53426;55.872;37.462;2022-10-16T04:06:31;100517.47;;;4.02;70.13
66385;BME280;53426;55.872;37.462;2022-10-16T04:08:57;100521.53;;;4.09;70.02
66385;BME280;53426;55.872;37.462;2022-10-16T04:11:23;100490.63;;;3.97;69.94
66385;BME280;53426;55.872;37.462;2022-10-16T04:13:49;100510.97;;;4.11;70.34
66385;BME280;53426;55.872;37.462;2022-10-16T04:16:15;100510.47;;;4.03;70.08
66385;BME280;53426;55.872;37.462;2022-10-16T04:18:40;100514.47;;;4.11;70.29
66385;BME280;53426;55.872;37.462;2022-10-16T04:21:07;100516.88;;;4.16;69.88
66385;BME280;53426;55.872;37.462;2022-10-16T04:23:33;100486.22;;;3.98;69.66
66385;BME280;53426;55.872;37.462;2022-10-16T04:25:59;100518.66;;;4.15;69.75
66385;BME280;53426;55.872;37.462;2022-10-16T04:28:26;100520.75;;;4.48;69.11
66385;BME280;53426;55.872;37.462;2022-10-16T04:30:52;100525.63;;;4.96;68.22
66385;BME280;53426;55.872;37.462;2022-10-16T04:33:18;100528.09;;;5.36;66.06
66385;BME280;53426;55.872;37.462;2022-10-16T04:35:43;100525.88;;;5.65;65.66
66385;BME280;53426;55.872;37.462;2022-10-16T04:38:09;100525.25;;;5.96;63.95
66385;BME280;53426;55.872;37.462;2022-10-16T04:40:35;100524.66;;;6.25;63.72
66385;BME280;53426;55.872;37.462;2022-10-16T04:43:03;100516.34;;;6.50;62.42
66385;BME280;53426;55.872;37.462;2022-10-16T04:45:29;100527.59;;;6.86;61.30
66385;BME280;53426;55.872;37.462;2022-10-16T04:47:58;100534.13;;;7.28;60.08
66385;BME280;53426;55.872;37.462;2022-10-16T04:50:24;100535.16;;;7.56;59.34
66385;BME280;53426;55.872;37.462;2022-10-16T04:53:05;100522.81;;;7.57;58.10
66385;BME280;53426;55.872;37.462;2022-10-16T04:55:30;100535.19;;;7.86;57.86
66385;BME280;53426;55.872;37.462;2022-10-16T04:57:56;100528.44;;;8.12;56.38
66385;BME280;53426;55.872;37.462;2022-10-16T05:00:22;100521.47;;;8.41;55.69
66385;BME280;53426;55.872;37.462;2022-10-16T05:02:52;100506.59;;;8.68;54.74
66385;BME280;53426;55.872;37.462;2022-10-16T05:05:18;100528.13;;;8.91;53.53
66385;BME280;53426;55.872;37.462;2022-10-16T05:07:55;100530.50;;;9.09;53.77
66385;BME280;53426;55.872;37.462;2022-10-16T05:10:21;100471.63;;;8.93;52.39
66385;BME280;53426;55.872;37.462;2022-10-16T05:12:47;100540.63;;;9.44;51.77
66385;BME280;53426;55.872;37.462;2022-10-16T05:15:12;100516.75;;;9.45;51.74
66385;BME280;53426;55.872;37.462;2022-10-16T05:17:38;100494.97;;;9.69;50.58
66385;BME280;53426;55.872;37.462;2022-10-16T05:20:04;100517.81;;;9.96;50.44
66385;BME280;53426;55.872;37.462;2022-10-16T05:22:30;100520.28;;;10.39;48.98
66385;BME280;53426;55.872;37.462;2022-10-16T05:24:56;100515.31;;;10.47;48.24
66385;BME280;53426;55.872;37.462;2022-10-16T05:27:22;100526.34;;;10.66;48.13
66385;BME280;53426;55.872;37.462;2022-10-16T05:29:49;100536.81;;;10.93;47.68
66385;BME280;53426;55.872;37.462;2022-10-16T05:32:17;100541.41;;;11.40;45.87
66385;BME280;53426;55.872;37.462;2022-10-16T05:34:43;100533.50;;;11.64;45.15
66385;BME280;53426;55.872;37.462;2022-10-16T05:37:09;100543.72;;;12.18;44.81
66385;BME280;53426;55.872;37.462;2022-10-16T05:39:39;100547.19;;;11.83;44.56
66385;BME280;53426;55.872;37.462;2022-10-16T05:42:05;100543.91;;;12.03;44.45
66385;BME280;53426;55.872;37.462;2022-10-16T05:44:31;100532.97;;;11.95;44.20
66385;BME280;53426;55.872;37.462;2022-10-16T05:46:58;100545.47;;;12.06;44.30
66385;BME280;53426;55.872;37.462;2022-10-16T05:49:23;100539.72;;;12.47;43.12
66385;BME280;53426;55.872;37.462;2022-10-16T05:51:49;100532.59;;;12.47;42.85
66385;BME280;53426;55.872;37.462;2022-10-16T05:54:16;100531.00;;;13.02;42.03
66385;BME280;53426;55.872;37.462;2022-10-16T05:56:42;100546.31;;;12.87;41.87
66385;BME280;53426;55.872;37.462;2022-10-16T05:59:08;100539.88;;;13.14;41.26
66385;BME280;53426;55.872;37.462;2022-10-16T06:01:34;100548.91;;;13.33;41.32
66385;BME280;53426;55.872;37.462;2022-10-16T06:04:01;100563.25;;;13.64;40.71
66385;BME280;53426;55.872;37.462;2022-10-16T06:06:28;100529.09;;;14.23;39.70
66385;BME280;53426;55.872;37.462;2022-10-16T06:08:56;100553.13;;;14.86;38.21
66385;BME280;53426;55.872;37.462;2022-10-16T06:11:25;100553.41;;;15.13;37.60
66385;BME280;53426;55.872;37.462;2022-10-16T06:13:52;100535.03;;;15.20;37.22
66385;BME280;53426;55.872;37.462;2022-10-16T06:16:18;100548.56;;;15.58;37.20
66385;BME280;53426;55.872;37.462;2022-10-16T06:18:44;100543.91;;;15.60;36.79
66385;BME280;53426;55.872;37.462;2022-10-16T06:21:21;100543.00;;;15.90;37.11
66385;BME280;53426;55.872;37.462;2022-10-16T06:23:48;100548.25;;;15.52;36.40
66385;BME280;53426;55.872;37.462;2022-10-16T06:26:16;100546.19;;;15.34;37.15
66385;BME280;53426;55.872;37.462;2022-10-16T06:28:43;100552.00;;;15.99;35.91
66385;BME280;53426;55.872;37.462;2022-10-16T06:37:59;100552.59;;;16.21;35.51
66385;BME280;53426;55.872;37.462;2022-10-16T06:40:59;100564.25;;;16.11;36.93
66385;BME280;53426;55.872;37.462;2022-10-16T06:43:25;100541.06;;;16.11;35.67
66385;BME280;53426;55.872;37.462;2022-10-16T06:45:56;100564.41;;;16.19;35.96
66385;BME280;53426;55.872;37.462;2022-10-16T06:51:39;100561.84;;;15.88;35.94
66385;BME280;53426;55.872;37.462;2022-10-16T06:54:06;100546.03;;;15.57;36.54
66385;BME280;53426;55.872;37.462;2022-10-16T06:56:33;100559.22;;;16.08;35.84
66385;BME280;53426;55.872;37.462;2022-10-16T06:58:59;100558.44;;;15.77;36.07
66385;BME280;53426;55.872;37.462;2022-10-16T07:01:27;100564.66;;;15.87;36.35
66385;BME280;53426;55.872;37.462;2022-10-16T07:03:53;100559.38;;;16.25;35.46
66385;BME280;53426;55.872;37.462;2022-10-16T07:06:22;100566.94;;;16.40;35.20
66385;BME280;53426;55.872;37.462;2022-10-16T07:08:48;100552.00;;;16.76;34.63
66385;BME280;53426;55.872;37.462;2022-10-16T07:11:20;100571.66;;;17.40;33.65
66385;BME280;53426;55.872;37.462;2022-10-16T07:13:47;100547.16;;;17.08;34.18
66385;BME280;53426;55.872;37.462;2022-10-16T07:16:16;100568.63;;;17.72;32.86
66385;BME280;53426;55.872;37.462;2022-10-16T07:18:47;100444.97;;;17.49;32.26
66385;BME280;53426;55.872;37.462;2022-10-16T07:21:16;100550.81;;;18.52;31.23
66385;BME280;53426;55.872;37.462;2022-10-16T07:23:43;100549.16;;;18.76;31.03
66385;BME280;53426;55.872;37.462;2022-10-16T07:26:23;100526.91;;;18.23;31.42
66385;BME280;53426;55.872;37.462;2022-10-16T07:28:52;100510.59;;;17.53;32.05
66385;BME280;53426;55.872;37.462;2022-10-16T07:31:55;100577.78;;;17.33;34.79
66385;BME280;53426;55.872;37.462;2022-10-16T07:34:46;100575.22;;;16.27;36.99
66385;BME280;53426;55.872;37.462;2022-10-16T07:37:11;100553.38;;;14.62;37.72
66385;BME280;53426;55.872;37.462;2022-10-16T07:39:40;100555.66;;;13.49;39.77
66385;BME280;53426;55.872;37.462;2022-10-16T07:42:06;100575.34;;;13.02;40.94
66385;BME280;53426;55.872;37.462;2022-10-16T07:44:33;100525.31;;;12.27;42.26
66385;BME280;53426;55.872;37.462;2022-10-16T07:46:58;100571.75;;;11.98;43.43
66385;BME280;53426;55.872;37.462;2022-10-16T07:49:24;100582.25;;;11.50;44.89
66385;BME280;53426;55.872;37.462;2022-10-16T07:51:55;100565.63;;;11.36;44.76
66385;BME280;53426;55.872;37.462;2022-10-16T07:54:31;100594.16;;;11.19;45.04
66385;BME280;53426;55.872;37.462;2022-10-16T07:57:51;100429.84;;;9.93;46.47
66385;BME280;53426;55.872;37.462;2022-10-16T08:03:51;100581.38;;;10.36;47.38
66385;BME280;53426;55.872;37.462;2022-10-16T08:06:18;100592.78;;;10.09;48.41
66385;BME280;53426;55.872;37.462;2022-10-16T08:09:08;100587.78;;;10.19;48.20
66385;BME280;53426;55.872;37.462;2022-10-16T08:11:34;100603.28;;;10.11;49.19
66385;BME280;53426;55.872;37.462;2022-10-16T08:17:00;100537.69;;;9.89;48.98
66385;BME280;53426;55.872;37.462;2022-10-16T08:19:28;100576.81;;;10.38;48.47
66385;BME280;53426;55.872;37.462;2022-10-16T08:22:21;100582.22;;;11.01;47.80
66385;BME280;53426;55.872;37.462;2022-10-16T08:24:46;100559.81;;;10.67;47.52
66385;BME280;53426;55.872;37.462;2022-10-16T08:27:12;100576.88;;;10.63;48.24
66385;BME280;53426;55.872;37.462;2022-10-16T08:32:54;100588.28;;;11.78;46.12
66385;BME280;53426;55.872;37.462;2022-10-16T08:39:13;100522.66;;;15.09;38.73
66385;BME280;53426;55.872;37.462;2022-10-16T08:47:19;100561.38;;;18.53;33.18
66385;BME280;53426;55.872;37.462;2022-10-16T08:49:56;100524.75;;;18.62;32.96
66385;BME280;53426;55.872;37.462;2022-10-16T08:52:30;100564.31;;;19.37;31.49
66385;BME280;53426;55.872;37.462;2022-10-16T08:54:59;100548.97;;;20.14;30.43
66385;BME280;53426;55.872;37.462;2022-10-16T08:57:25;100553.75;;;20.44;29.29
66385;BME280;53426;55.872;37.462;2022-10-16T09:00:04;100558.38;;;20.01;29.35
66385;BME280;53426;55.872;37.462;2022-10-16T09:02:35;100533.03;;;19.54;30.17
66385;BME280;53426;55.872;37.462;2022-10-16T09:05:36;100568.66;;;20.22;30.29
66385;BME280;53426;55.872;37.462;2022-10-16T09:13:20;100556.25;;;22.65;27.58
66385;BME280;53426;55.872;37.462;2022-10-16T09:18:29;100554.28;;;23.48;25.47
66385;BME280;53426;55.872;37.462;2022-10-16T09:21:15;100547.91;;;23.41;25.16
66385;BME280;53426;55.872;37.462;2022-10-16T09:23:42;100548.44;;;22.92;24.49
66385;BME280;53426;55.872;37.462;2022-10-16T09:26:12;100541.94;;;23.31;24.11
66385;BME280;53426;55.872;37.462;2022-10-16T09:28:39;100544.19;;;23.71;24.11
66385;BME280;53426;55.872;37.462;2022-10-16T09:31:05;100547.78;;;23.93;24.14
66385;BME280;53426;55.872;37.462;2022-10-16T09:33:37;100552.84;;;23.82;24.01
66385;BME280;53426;55.872;37.462;2022-10-16T09:36:08;100546.78;;;23.80;22.98
66385;BME280;53426;55.872;37.462;2022-10-16T09:38:38;100540.00;;;23.54;24.18
66385;BME280;53426;55.872;37.462;2022-10-16T09:41:19;100511.38;;;22.86;25.36
66385;BME280;53426;55.872;37.462;2022-10-16T09:44:00;100525.72;;;23.31;24.69
66385;BME280;53426;55.872;37.462;2022-10-16T09:46:35;100536.00;;;23.21;24.25
66385;BME280;53426;55.872;37.462;2022-10-16T09:49:25;100521.06;;;23.69;24.62
66385;BME280;53426;55.872;37.462;2022-10-16T09:52:14;100529.81;;;24.22;23.55
66385;BME280;53426;55.872;37.462;2022-10-16T09:54:55;100523.41;;;23.57;24.17
66385;BME280;53426;55.872;37.462;2022-10-16T09:57:22;100482.19;;;23.41;23.53
66385;BME280;53426;55.872;37.462;2022-10-16T09:59:50;100504.97;;;23.17;23.64
66385;BME280;53426;55.872;37.462;2022-10-16T10:02:36;100531.97;;;23.31;23.79
66385;BME280;53426;55.872;37.462;2022-10-16T10:05:17;100523.34;;;23.87;23.66
66385;BME280;53426;55.872;37.462;2022-10-16T10:07:45;100519.94;;;23.78;22.58
66385;BME280;53426;55.872;37.462;2022-10-16T10:10:30;100512.63;;;24.85;23.43
66385;BME280;53426;55.872;37.462;2022-10-16T10:12:59;100479.81;;;24.03;22.54
66385;BME280;53426;55.872;37.462;2022-10-16T10:15:28;100498.06;;;23.94;22.42
66385;BME280;53426;55.872;37.462;2022-10-16T10:17:58;100500.38;;;23.32;23.30
66385;BME280;53426;55.872;37.462;2022-10-16T10:20:57;100514.44;;;23.42;24.48
66385;BME280;53426;55.872;37.462;2022-10-16T10:23:24;100473.84;;;23.21;23.71
66385;BME280;53426;55.872;37.462;2022-10-16T10:26:08;100511.69;;;23.86;24.16
66385;BME280;53426;55.872;37.462;2022-10-16T10:31:29;100485.69;;;23.34;23.02
66385;BME280;53426;55.872;37.462;2022-10-16T10:36:39;100505.88;;;22.20;24.39
66385;BME280;53426;55.872;37.462;2022-10-16T10:39:16;100479.34;;;22.46;24.50
66385;BME280;53426;55.872;37.462;2022-10-16T10:41:57;100511.47;;;22.56;24.34
66385;BME280;53426;55.872;37.462;2022-10-16T10:47:33;100503.47;;;21.71;25.13
66385;BME280;53426;55.872;37.462;2022-10-16T10:56:05;100477.34;;;22.02;25.01
66385;BME280;53426;55.872;37.462;2022-10-16T11:01:16;100471.78;;;21.42;25.71
66385;BME280;53426;55.872;37.462;2022-10-16T11:03:59;100492.03;;;21.38;26.63
66385;BME280;53426;55.872;37.462;2022-10-16T11:06:36;100500.88;;;20.92;26.66
66385;BME280;53426;55.872;37.462;2022-10-16T11:09:13;100490.28;;;19.77;28.62
66385;BME280;53426;55.872;37.462;2022-10-16T11:11:45;100477.66;;;19.27;28.58
66385;BME280;53426;55.872;37.462;2022-10-16T11:17:04;100506.19;;;18.68;30.84
66385;BME280;53426;55.872;37.462;2022-10-16T11:24:46;100496.44;;;16.69;34.39
66385;BME280;53426;55.872;37.462;2022-10-16T11:27:18;100471.75;;;15.81;35.88
66385;BME280;53426;55.872;37.462;2022-10-16T11:29:59;100488.63;;;15.41;35.14
66385;BME280;53426;55.872;37.462;2022-10-16T11:32:35;100469.13;;;14.71;36.39
66385;BME280;53426;55.872;37.462;2022-10-16T11:35:19;100490.56;;;14.69;36.70
66385;BME280;53426;55.872;37.462;2022-10-16T11:37:49;100483.94;;;14.22;37.23
66385;BME280;53426;55.872;37.462;2022-10-16T11:40:23;100484.97;;;14.10;37.78
66385;BME280;53426;55.872;37.462;2022-10-16T11:42:57;100480.72;;;13.75;38.61
66385;BME280;53426;55.872;37.462;2022-10-16T11:46:08;100484.78;;;13.59;38.31
66385;BME280;53426;55.872;37.462;2022-10-16T11:48:38;100494.50;;;13.37;39.92
66385;BME280;53426;55.872;37.462;2022-10-16T11:51:17;100471.31;;;13.17;40.46
66385;BME280;53426;55.872;37.462;2022-10-16T11:56:48;100482.31;;;13.24;40.71
66385;BME280;53426;55.872;37.462;2022-10-16T12:01:59;100495.63;;;13.13;40.28
66385;BME280;53426;55.872;37.462;2022-10-16T12:04:43;100489.91;;;13.06;40.49
66385;BME280;53426;55.872;37.462;2022-10-16T12:07:15;100494.47;;;12.93;40.01
66385;BME280;53426;55.872;37.462;2022-10-16T12:09:43;100483.03;;;12.81;42.15
66385;BME280;53426;55.872;37.462;2022-10-16T12:12:36;100489.41;;;12.79;40.87
66385;BME280;53426;55.872;37.462;2022-10-16T12:15:28;100490.00;;;12.82;40.72
66385;BME280;53426;55.872;37.462;2022-10-16T12:17:55;100462.69;;;12.58;41.87
66385;BME280;53426;55.872;37.462;2022-10-16T12:20:32;100482.88;;;12.72;41.36
66385;BME280;53426;55.872;37.462;2022-10-16T12:23:03;100484.44;;;12.63;41.04
66385;BME280;53426;55.872;37.462;2022-10-16T12:25:32;100359.97;;;11.90;42.50
66385;BME280;53426;55.872;37.462;2022-10-16T12:28:06;100467.63;;;12.51;41.82
66385;BME280;53426;55.872;37.462;2022-10-16T12:30:35;100476.19;;;12.33;42.25
66385;BME280;53426;55.872;37.462;2022-10-16T12:33:04;100443.28;;;12.11;41.94
66385;BME280;53426;55.872;37.462;2022-10-16T12:35:35;100403.66;;;11.86;41.58
66385;BME280;53426;55.872;37.462;2022-10-16T12:38:17;100403.16;;;11.81;42.38
66385;BME280;53426;55.872;37.462;2022-10-16T12:40:45;100440.22;;;11.94;42.29
66385;BME280;53426;55.872;37.462;2022-10-16T12:48:40;100455.47;;;12.03;43.01
66385;BME280;53426;55.872;37.462;2022-10-16T12:54:11;100441.09;;;11.94;43.24
66385;BME280;53426;55.872;37.462;2022-10-16T13:02:39;100467.63;;;11.94;43.54
66385;BME280;53426;55.872;37.462;2022-10-16T13:16:10;100468.44;;;11.71;43.57
66385;BME280;53426;55.872;37.462;2022-10-16T13:21:56;100475.75;;;11.80;44.22
66385;BME280;53426;55.872;37.462;2022-10-16T13:27:25;100446.41;;;11.58;44.36
66385;BME280;53426;55.872;37.462;2022-10-16T13:30:02;100472.28;;;11.67;44.31
66385;BME280;53426;55.872;37.462;2022-10-16T13:32:34;100478.25;;;11.58;44.69
66385;BME280;53426;55.872;37.462;2022-10-16T13:35:15;100465.16;;;11.44;44.81
66385;BME280;53426;55.872;37.462;2022-10-16T13:37:43;100411.25;;;11.19;45.02
66385;BME280;53426;55.872;37.462;2022-10-16T13:40:23;100460.91;;;11.41;45.41
66385;BME280;53426;55.872;37.462;2022-10-16T13:42:50;100478.88;;;11.38;45.36
66385;BME280;53426;55.872;37.462;2022-10-16T13:45:21;100466.56;;;11.37;45.26
66385;BME280;53426;55.872;37.462;2022-10-16T13:47:48;100447.84;;;11.14;45.71
66385;BME280;53426;55.872;37.462;2022-10-16T13:50:17;100446.06;;;11.15;45.97
66385;BME280;53426;55.872;37.462;2022-10-16T13:52:45;100432.97;;;11.01;46.19
66385;BME280;53426;55.872;37.462;2022-10-16T13:55:17;100441.53;;;11.04;46.46
66385;BME280;53426;55.872;37.462;2022-10-16T13:57:44;100402.28;;;10.73;46.12
66385;BME280;53426;55.872;37.462;2022-10-16T14:00:22;100459.03;;;11.07;46.52
66385;BME280;53426;55.872;37.462;2022-10-16T14:02:58;100406.72;;;10.60;46.76
66385;BME280;53426;55.872;37.462;2022-10-16T14:05:27;100391.19;;;10.42;46.87
66385;BME280;53426;55.872;37.462;2022-10-16T14:07:54;100418.19;;;10.60;46.59
66385;BME280;53426;55.872;37.462;2022-10-16T14:10:32;100407.91;;;10.56;46.50
66385;BME280;53426;55.872;37.462;2022-10-16T14:13:01;100380.63;;;10.30;46.88
66385;BME280;53426;55.872;37.462;2022-10-16T14:15:29;100394.66;;;10.43;47.53
66385;BME280;53426;55.872;37.462;2022-10-16T14:17:57;100480.66;;;10.75;47.29
66385;BME280;53426;55.872;37.462;2022-10-16T14:20:30;100363.53;;;10.08;47.89
66385;BME280;53426;55.872;37.462;2022-10-16T14:23:04;100447.72;;;10.54;47.48
66385;BME280;53426;55.872;37.462;2022-10-16T14:25:47;100463.09;;;10.62;47.72
66385;BME280;53426;55.872;37.462;2022-10-16T14:28:24;100429.94;;;10.43;48.14
66385;BME280;53426;55.872;37.462;2022-10-16T14:30:56;100460.13;;;10.54;48.60
66385;BME280;53426;55.872;37.462;2022-10-16T14:33:31;100455.16;;;10.49;48.69
66385;BME280;53426;55.872;37.462;2022-10-16T14:38:32;100439.03;;;10.27;49.00
66385;BME280;53426;55.872;37.462;2022-10-16T14:41:01;100453.13;;;10.27;49.29
66385;BME280;53426;55.872;37.462;2022-10-16T14:43:38;100467.75;;;10.33;49.16
66385;BME280;53426;55.872;37.462;2022-10-16T14:46:13;100453.44;;;10.23;48.94
66385;BME280;53426;55.872;37.462;2022-10-16T14:48:43;100467.31;;;10.26;49.17
66385;BME280;53426;55.872;37.462;2022-10-16T14:51:13;100467.53;;;10.23;49.12
66385;BME280;53426;55.872;37.462;2022-10-16T14:53:40;100463.66;;;10.15;49.55
66385;BME280;53426;55.872;37.462;2022-10-16T14:56:16;100462.66;;;10.17;49.55
66385;BME280;53426;55.872;37.462;2022-10-16T14:58:42;100450.44;;;10.02;49.80